sensor_id;sensor_type;location;lat;lon;timestamp;P1;durP1;ratioP1;P2;durP2;ratioP2
38843;SDS011;24596;48.080;8.362;2022-09-13T00:01:41;7.68;;;3.03;;
38843;SDS011;24596;48.080;8.362;2022-09-13T00:04:06;5.97;;;2.42;;
38843;SDS011;24596;48.080;8.362;2022-09-13T00:06:31;6.40;;;2.28;;
38843;SDS011;24596;48.080;8.362;2022-09-13T00:08:56;5.22;;;2.20;;
38843;SDS011;24596;48.080;8.362;2022-09-13T00:11:25;5.00;;;2.40;;
38843;SDS011;24596;48.080;8.362;2022-09-13T00:13:51;4.93;;;2.45;;
38843;SDS011;24596;48.080;8.362;2022-09-13T00:16:18;5.70;;;2.15;;
38843;SDS011;24596;48.080;8.362;2022-09-13T00:18:43;6.80;;;2.30;;
38843;SDS011;24596;48.080;8.362;2022-09-13T00:21:10;4.47;;;2.20;;
38843;SDS011;24596;48.080;8.362;2022-09-13T00:23:36;5.60;;;2.17;;
38843;SDS011;24596;48.080;8.362;2022-09-13T00:26:05;6.35;;;2.38;;
38843;SDS011;24596;48.080;8.362;2022-09-13T00:28:30;4.25;;;1.80;;
38843;SDS011;24596;48.080;8.362;2022-09-13T00:30:59;5.38;;;2.17;;
38843;SDS011;24596;48.080;8.362;2022-09-13T00:33:24;4.07;;;1.98;;
38843;SDS011;24596;48.080;8.362;2022-09-13T00:35:49;5.22;;;2.33;;
38843;SDS011;24596;48.080;8.362;2022-09-13T00:38:14;3.92;;;1.80;;
38843;SDS011;24596;48.080;8.362;2022-09-13T00:40:39;6.80;;;2.35;;
38843;SDS011;24596;48.080;8.362;2022-09-13T00:43:08;6.13;;;2.90;;
38843;SDS011;24596;48.080;8.362;2022-09-13T00:45:36;10.48;;;2.50;;
38843;SDS011;24596;48.080;8.362;2022-09-13T00:48:04;3.65;;;1.67;;
38843;SDS011;24596;48.080;8.362;2022-09-13T00:50:30;3.67;;;1.67;;
38843;SDS011;24596;48.080;8.362;2022-09-13T00:52:58;4.80;;;1.73;;
38843;SDS011;24596;48.080;8.362;2022-09-13T00:55:29;4.03;;;1.98;;
38843;SDS011;24596;48.080;8.362;2022-09-13T00:57:57;5.45;;;1.90;;
38843;SDS011;24596;48.080;8.362;2022-09-13T01:00:24;6.82;;;1.90;;
38843;SDS011;24596;48.080;8.362;2022-09-13T01:02:53;5.30;;;2.00;;
38843;SDS011;24596;48.080;8.362;2022-09-13T01:05:21;4.47;;;2.08;;
38843;SDS011;24596;48.080;8.362;2022-09-13T01:07:47;4.43;;;1.85;;
38843;SDS011;24596;48.080;8.362;2022-09-13T01:10:13;4.50;;;2.00;;
38843;SDS011;24596;48.080;8.362;2022-09-13T01:12:54;4.00;;;1.88;;
38843;SDS011;24596;48.080;8.362;2022-09-13T01:15:21;6.30;;;1.83;;
38843;SDS011;24596;48.080;8.362;2022-09-13T01:17:46;5.57;;;1.60;;
38843;SDS011;24596;48.080;8.362;2022-09-13T01:20:11;5.28;;;1.85;;
38843;SDS011;24596;48.080;8.362;2022-09-13T01:22:55;4.05;;;1.63;;
38843;SDS011;24596;48.080;8.362;2022-09-13T01:30:34;4.70;;;1.88;;
38843;SDS011;24596;48.080;8.362;2022-09-13T01:43:26;4.72;;;1.65;;
38843;SDS011;24596;48.080;8.362;2022-09-13T01:46:12;5.35;;;1.98;;
38843;SDS011;24596;48.080;8.362;2022-09-13T01:48:46;3.53;;;1.60;;
38843;SDS011;24596;48.080;8.362;2022-09-13T01:51:24;3.25;;;1.55;;
38843;SDS011;24596;48.080;8.362;2022-09-13T01:56:30;3.10;;;1.70;;
38843;SDS011;24596;48.080;8.362;2022-09-13T01:58:58;3.40;;;1.65;;
38843;SDS011;24596;48.080;8.362;2022-09-13T02:01:27;3.13;;;1.50;;
38843;SDS011;24596;48.080;8.362;2022-09-13T02:06:24;3.08;;;1.58;;
38843;SDS011;24596;48.080;8.362;2022-09-13T02:08:54;3.60;;;1.63;;
38843;SDS011;24596;48.080;8.362;2022-09-13T02:11:20;3.08;;;1.52;;
38843;SDS011;24596;48.080;8.362;2022-09-13T02:13:56;6.05;;;1.63;;
38843;SDS011;24596;48.080;8.362;2022-09-13T02:16:32;2.28;;;1.30;;
38843;SDS011;24596;48.080;8.362;2022-09-13T02:18:59;2.95;;;1.60;;
38843;SDS011;24596;48.080;8.362;2022-09-13T02:21:27;3.13;;;1.40;;
38843;SDS011;24596;48.080;8.362;2022-09-13T02:23:53;5.57;;;1.63;;
38843;SDS011;24596;48.080;8.362;2022-09-13T02:26:20;4.53;;;1.70;;
38843;SDS011;24596;48.080;8.362;2022-09-13T02:28:47;5.68;;;1.75;;
38843;SDS011;24596;48.080;8.362;2022-09-13T02:31:13;3.90;;;1.45;;
38843;SDS011;24596;48.080;8.362;2022-09-13T02:33:43;6.53;;;2.33;;
38843;SDS011;24596;48.080;8.362;2022-09-13T02:36:14;5.10;;;1.60;;
38843;SDS011;24596;48.080;8.362;2022-09-13T02:38:46;2.88;;;1.50;;
38843;SDS011;24596;48.080;8.362;2022-09-13T02:41:16;8.68;;;1.95;;
38843;SDS011;24596;48.080;8.362;2022-09-13T02:43:45;5.30;;;1.60;;
38843;SDS011;24596;48.080;8.362;2022-09-13T02:46:54;3.20;;;1.50;;
38843;SDS011;24596;48.080;8.362;2022-09-13T02:49:10;2.80;;;1.42;;
38843;SDS011;24596;48.080;8.362;2022-09-13T02:51:41;4.47;;;2.00;;
38843;SDS011;24596;48.080;8.362;2022-09-13T02:54:12;7.53;;;3.50;;
38843;SDS011;24596;48.080;8.362;2022-09-13T02:56:45;3.42;;;1.58;;
38843;SDS011;24596;48.080;8.362;2022-09-13T02:59:15;3.75;;;1.80;;
38843;SDS011;24596;48.080;8.362;2022-09-13T03:01:41;5.53;;;1.85;;
38843;SDS011;24596;48.080;8.362;2022-09-13T03:04:09;4.05;;;1.40;;
38843;SDS011;24596;48.080;8.362;2022-09-13T03:06:34;4.75;;;2.28;;
38843;SDS011;24596;48.080;8.362;2022-09-13T03:09:00;5.20;;;1.30;;
38843;SDS011;24596;48.080;8.362;2022-09-13T03:14:16;3.53;;;1.50;;
38843;SDS011;24596;48.080;8.362;2022-09-13T03:22:29;3.97;;;1.45;;
38843;SDS011;24596;48.080;8.362;2022-09-13T03:29:55;4.00;;;1.50;;
38843;SDS011;24596;48.080;8.362;2022-09-13T03:35:11;3.28;;;1.27;;
38843;SDS011;24596;48.080;8.362;2022-09-13T03:37:44;5.25;;;1.40;;
38843;SDS011;24596;48.080;8.362;2022-09-13T03:40:13;5.07;;;1.40;;
38843;SDS011;24596;48.080;8.362;2022-09-13T03:42:44;3.03;;;1.27;;
38843;SDS011;24596;48.080;8.362;2022-09-13T03:45:12;1.77;;;1.17;;
38843;SDS011;24596;48.080;8.362;2022-09-13T03:47:39;2.55;;;1.20;;
38843;SDS011;24596;48.080;8.362;2022-09-13T03:50:05;2.97;;;1.50;;
38843;SDS011;24596;48.080;8.362;2022-09-13T03:52:31;2.38;;;1.20;;
38843;SDS011;24596;48.080;8.362;2022-09-13T03:54:57;3.60;;;1.25;;
38843;SDS011;24596;48.080;8.362;2022-09-13T03:57:22;2.58;;;1.27;;
38843;SDS011;24596;48.080;8.362;2022-09-13T03:59:49;5.55;;;1.20;;
38843;SDS011;24596;48.080;8.362;2022-09-13T04:02:15;3.63;;;1.52;;
38843;SDS011;24596;48.080;8.362;2022-09-13T04:04:41;5.82;;;1.67;;
38843;SDS011;24596;48.080;8.362;2022-09-13T04:07:07;5.03;;;1.70;;
38843;SDS011;24596;48.080;8.362;2022-09-13T04:09:33;3.78;;;1.67;;
38843;SDS011;24596;48.080;8.362;2022-09-13T04:11:58;3.25;;;1.35;;
38843;SDS011;24596;48.080;8.362;2022-09-13T04:14:23;5.43;;;2.08;;
38843;SDS011;24596;48.080;8.362;2022-09-13T04:16:54;3.42;;;1.65;;
38843;SDS011;24596;48.080;8.362;2022-09-13T04:19:20;6.47;;;1.50;;
38843;SDS011;24596;48.080;8.362;2022-09-13T04:21:48;5.30;;;1.38;;
38843;SDS011;24596;48.080;8.362;2022-09-13T04:24:14;3.30;;;1.20;;
38843;SDS011;24596;48.080;8.362;2022-09-13T04:26:40;3.95;;;1.20;;
38843;SDS011;24596;48.080;8.362;2022-09-13T04:29:05;5.55;;;1.48;;
38843;SDS011;24596;48.080;8.362;2022-09-13T04:31:30;3.28;;;1.30;;
38843;SDS011;24596;48.080;8.362;2022-09-13T04:33:55;5.00;;;1.45;;
38843;SDS011;24596;48.080;8.362;2022-09-13T04:36:20;1.95;;;0.90;;
38843;SDS011;24596;48.080;8.362;2022-09-13T04:38:46;6.40;;;1.42;;
38843;SDS011;24596;48.080;8.362;2022-09-13T04:41:12;7.07;;;1.40;;
38843;SDS011;24596;48.080;8.362;2022-09-13T04:43:37;2.53;;;1.30;;
38843;SDS011;24596;48.080;8.362;2022-09-13T04:46:02;3.50;;;1.25;;
38843;SDS011;24596;48.080;8.362;2022-09-13T04:48:28;4.80;;;1.30;;
38843;SDS011;24596;48.080;8.362;2022-09-13T04:50:53;2.50;;;1.10;;
38843;SDS011;24596;48.080;8.362;2022-09-13T04:53:24;3.90;;;1.40;;
38843;SDS011;24596;48.080;8.362;2022-09-13T04:55:49;2.78;;;1.17;;
38843;SDS011;24596;48.080;8.362;2022-09-13T04:58:14;4.10;;;1.85;;
38843;SDS011;24596;48.080;8.362;2022-09-13T05:00:40;3.53;;;1.30;;
38843;SDS011;24596;48.080;8.362;2022-09-13T05:03:05;3.90;;;1.38;;
38843;SDS011;24596;48.080;8.362;2022-09-13T05:05:30;3.35;;;1.30;;
38843;SDS011;24596;48.080;8.362;2022-09-13T05:07:56;3.20;;;1.40;;
38843;SDS011;24596;48.080;8.362;2022-09-13T05:10:22;2.75;;;1.45;;
38843;SDS011;24596;48.080;8.362;2022-09-13T05:12:47;9.73;;;1.48;;
38843;SDS011;24596;48.080;8.362;2022-09-13T05:15:12;3.00;;;1.35;;
38843;SDS011;24596;48.080;8.362;2022-09-13T05:17:37;2.72;;;1.30;;
38843;SDS011;24596;48.080;8.362;2022-09-13T05:20:03;3.08;;;1.55;;
38843;SDS011;24596;48.080;8.362;2022-09-13T05:22:29;2.65;;;1.50;;
38843;SDS011;24596;48.080;8.362;2022-09-13T05:24:54;2.67;;;1.20;;
38843;SDS011;24596;48.080;8.362;2022-09-13T05:27:20;3.05;;;1.30;;
38843;SDS011;24596;48.080;8.362;2022-09-13T05:29:45;4.18;;;1.58;;
38843;SDS011;24596;48.080;8.362;2022-09-13T05:32:11;4.40;;;1.35;;
38843;SDS011;24596;48.080;8.362;2022-09-13T05:34:36;4.88;;;1.30;;
38843;SDS011;24596;48.080;8.362;2022-09-13T05:37:01;5.13;;;1.40;;
38843;SDS011;24596;48.080;8.362;2022-09-13T05:39:26;3.17;;;1.55;;
38843;SDS011;24596;48.080;8.362;2022-09-13T05:41:52;2.20;;;1.27;;
38843;SDS011;24596;48.080;8.362;2022-09-13T05:44:17;2.55;;;1.10;;
38843;SDS011;24596;48.080;8.362;2022-09-13T05:46:45;2.38;;;1.20;;
38843;SDS011;24596;48.080;8.362;2022-09-13T05:49:10;3.95;;;1.55;;
38843;SDS011;24596;48.080;8.362;2022-09-13T05:51:36;3.13;;;1.50;;
38843;SDS011;24596;48.080;8.362;2022-09-13T05:54:01;4.72;;;1.50;;
38843;SDS011;24596;48.080;8.362;2022-09-13T05:56:28;2.85;;;1.42;;
38843;SDS011;24596;48.080;8.362;2022-09-13T05:58:54;3.83;;;1.45;;
38843;SDS011;24596;48.080;8.362;2022-09-13T06:01:20;2.85;;;1.40;;
38843;SDS011;24596;48.080;8.362;2022-09-13T06:03:46;2.90;;;1.40;;
38843;SDS011;24596;48.080;8.362;2022-09-13T06:06:12;3.03;;;1.27;;
38843;SDS011;24596;48.080;8.362;2022-09-13T06:08:37;2.90;;;1.17;;
38843;SDS011;24596;48.080;8.362;2022-09-13T06:11:03;3.17;;;1.30;;
38843;SDS011;24596;48.080;8.362;2022-09-13T06:13:29;6.65;;;1.67;;
38843;SDS011;24596;48.080;8.362;2022-09-13T06:15:56;3.40;;;1.35;;
38843;SDS011;24596;48.080;8.362;2022-09-13T06:18:21;4.88;;;1.20;;
38843;SDS011;24596;48.080;8.362;2022-09-13T06:20:47;4.57;;;1.33;;
38843;SDS011;24596;48.080;8.362;2022-09-13T06:23:12;1.65;;;0.93;;
38843;SDS011;24596;48.080;8.362;2022-09-13T06:25:38;5.60;;;1.38;;
38843;SDS011;24596;48.080;8.362;2022-09-13T06:28:03;3.53;;;0.90;;
38843;SDS011;24596;48.080;8.362;2022-09-13T06:30:29;2.88;;;1.30;;
38843;SDS011;24596;48.080;8.362;2022-09-13T06:32:57;1.85;;;1.10;;
38843;SDS011;24596;48.080;8.362;2022-09-13T06:35:22;3.42;;;0.93;;
38843;SDS011;24596;48.080;8.362;2022-09-13T06:37:48;2.20;;;0.95;;
38843;SDS011;24596;48.080;8.362;2022-09-13T06:40:13;3.28;;;1.02;;
38843;SDS011;24596;48.080;8.362;2022-09-13T06:42:38;1.95;;;1.05;;
38843;SDS011;24596;48.080;8.362;2022-09-13T06:45:04;6.05;;;1.25;;
38843;SDS011;24596;48.080;8.362;2022-09-13T06:47:29;4.00;;;1.60;;
38843;SDS011;24596;48.080;8.362;2022-09-13T06:49:54;4.60;;;0.98;;
38843;SDS011;24596;48.080;8.362;2022-09-13T06:52:20;2.95;;;1.25;;
38843;SDS011;24596;48.080;8.362;2022-09-13T06:54:45;4.93;;;1.15;;
38843;SDS011;24596;48.080;8.362;2022-09-13T06:57:10;2.35;;;1.00;;
38843;SDS011;24596;48.080;8.362;2022-09-13T06:59:35;4.75;;;1.23;;
38843;SDS011;24596;48.080;8.362;2022-09-13T07:02:01;3.95;;;1.33;;
38843;SDS011;24596;48.080;8.362;2022-09-13T07:04:26;2.28;;;1.10;;
38843;SDS011;24596;48.080;8.362;2022-09-13T07:06:55;4.68;;;1.08;;
38843;SDS011;24596;48.080;8.362;2022-09-13T07:09:21;3.30;;;0.93;;
38843;SDS011;24596;48.080;8.362;2022-09-13T07:11:47;1.85;;;0.90;;
38843;SDS011;24596;48.080;8.362;2022-09-13T07:14:13;3.33;;;1.10;;
38843;SDS011;24596;48.080;8.362;2022-09-13T07:16:39;3.90;;;1.05;;
38843;SDS011;24596;48.080;8.362;2022-09-13T07:19:05;4.97;;;1.30;;
38843;SDS011;24596;48.080;8.362;2022-09-13T07:21:31;3.60;;;1.08;;
38843;SDS011;24596;48.080;8.362;2022-09-13T07:23:57;3.35;;;1.00;;
38843;SDS011;24596;48.080;8.362;2022-09-13T07:26:23;3.60;;;1.20;;
38843;SDS011;24596;48.080;8.362;2022-09-13T07:28:49;1.60;;;0.75;;
38843;SDS011;24596;48.080;8.362;2022-09-13T07:31:19;6.72;;;1.60;;
38843;SDS011;24596;48.080;8.362;2022-09-13T07:33:45;10.00;;;1.85;;
38843;SDS011;24596;48.080;8.362;2022-09-13T07:36:11;4.43;;;1.25;;
38843;SDS011;24596;48.080;8.362;2022-09-13T07:38:37;2.55;;;1.05;;
38843;SDS011;24596;48.080;8.362;2022-09-13T07:41:03;3.60;;;1.50;;
38843;SDS011;24596;48.080;8.362;2022-09-13T07:43:30;4.68;;;0.88;;
38843;SDS011;24596;48.080;8.362;2022-09-13T07:45:56;2.13;;;0.90;;
38843;SDS011;24596;48.080;8.362;2022-09-13T07:48:22;2.13;;;0.93;;
38843;SDS011;24596;48.080;8.362;2022-09-13T07:50:57;4.63;;;1.00;;
38843;SDS011;24596;48.080;8.362;2022-09-13T07:53:23;3.88;;;1.00;;
38843;SDS011;24596;48.080;8.362;2022-09-13T07:55:48;1.67;;;0.97;;
38843;SDS011;24596;48.080;8.362;2022-09-13T07:58:13;2.53;;;1.07;;
38843;SDS011;24596;48.080;8.362;2022-09-13T08:00:38;4.20;;;1.00;;
38843;SDS011;24596;48.080;8.362;2022-09-13T08:03:03;2.47;;;1.00;;
38843;SDS011;24596;48.080;8.362;2022-09-13T08:05:29;6.90;;;1.20;;
38843;SDS011;24596;48.080;8.362;2022-09-13T08:07:54;9.23;;;1.10;;
38843;SDS011;24596;48.080;8.362;2022-09-13T08:10:19;2.93;;;0.77;;
38843;SDS011;24596;48.080;8.362;2022-09-13T08:12:44;1.85;;;1.00;;
38843;SDS011;24596;48.080;8.362;2022-09-13T08:15:09;2.13;;;1.00;;
38843;SDS011;24596;48.080;8.362;2022-09-13T08:17:35;4.57;;;0.98;;
38843;SDS011;24596;48.080;8.362;2022-09-13T08:20:00;4.55;;;0.80;;
38843;SDS011;24596;48.080;8.362;2022-09-13T08:22:25;1.83;;;0.90;;
38843;SDS011;24596;48.080;8.362;2022-09-13T08:24:50;3.43;;;0.90;;
38843;SDS011;24596;48.080;8.362;2022-09-13T08:27:16;3.60;;;0.90;;
38843;SDS011;24596;48.080;8.362;2022-09-13T08:29:41;3.95;;;0.90;;
38843;SDS011;24596;48.080;8.362;2022-09-13T08:32:06;3.65;;;1.10;;
38843;SDS011;24596;48.080;8.362;2022-09-13T08:34:31;1.60;;;0.87;;
38843;SDS011;24596;48.080;8.362;2022-09-13T08:36:57;2.83;;;0.97;;
38843;SDS011;24596;48.080;8.362;2022-09-13T08:39:22;8.90;;;0.88;;
38843;SDS011;24596;48.080;8.362;2022-09-13T08:46:42;3.78;;;1.05;;
38843;SDS011;24596;48.080;8.362;2022-09-13T08:49:22;1.30;;;0.70;;
38843;SDS011;24596;48.080;8.362;2022-09-13T08:51:50;3.97;;;0.90;;
38843;SDS011;24596;48.080;8.362;2022-09-13T08:54:17;2.88;;;0.77;;
38843;SDS011;24596;48.080;8.362;2022-09-13T08:59:25;2.72;;;1.00;;
38843;SDS011;24596;48.080;8.362;2022-09-13T09:04:43;3.25;;;1.15;;
38843;SDS011;24596;48.080;8.362;2022-09-13T09:07:11;2.83;;;0.90;;
38843;SDS011;24596;48.080;8.362;2022-09-13T09:09:42;1.85;;;0.52;;
38843;SDS011;24596;48.080;8.362;2022-09-13T09:14:38;2.63;;;0.82;;
38843;SDS011;24596;48.080;8.362;2022-09-13T09:17:06;1.40;;;0.63;;
38843;SDS011;24596;48.080;8.362;2022-09-13T09:19:35;3.83;;;0.80;;
38843;SDS011;24596;48.080;8.362;2022-09-13T09:22:18;3.08;;;0.73;;
38843;SDS011;24596;48.080;8.362;2022-09-13T09:24:44;2.75;;;0.80;;
38843;SDS011;24596;48.080;8.362;2022-09-13T09:27:13;4.22;;;0.85;;
38843;SDS011;24596;48.080;8.362;2022-09-13T09:29:38;5.68;;;1.00;;
38843;SDS011;24596;48.080;8.362;2022-09-13T09:37:24;4.30;;;1.45;;
38843;SDS011;24596;48.080;8.362;2022-09-13T09:39:51;1.45;;;0.60;;
38843;SDS011;24596;48.080;8.362;2022-09-13T09:42:17;3.55;;;0.80;;
38843;SDS011;24596;48.080;8.362;2022-09-13T09:44:50;3.60;;;0.60;;
38843;SDS011;24596;48.080;8.362;2022-09-13T09:47:21;3.38;;;0.82;;
38843;SDS011;24596;48.080;8.362;2022-09-13T09:49:50;3.83;;;1.08;;
38843;SDS011;24596;48.080;8.362;2022-09-13T09:52:52;5.70;;;0.90;;
38843;SDS011;24596;48.080;8.362;2022-09-13T09:55:41;2.90;;;0.80;;
38843;SDS011;24596;48.080;8.362;2022-09-13T09:58:09;2.65;;;0.80;;
38843;SDS011;24596;48.080;8.362;2022-09-13T10:00:39;6.00;;;0.98;;
38843;SDS011;24596;48.080;8.362;2022-09-13T10:03:18;2.42;;;0.77;;
38843;SDS011;24596;48.080;8.362;2022-09-13T10:05:44;2.85;;;0.90;;
38843;SDS011;24596;48.080;8.362;2022-09-13T10:08:22;1.48;;;0.68;;
38843;SDS011;24596;48.080;8.362;2022-09-13T10:10:55;1.67;;;0.80;;
38843;SDS011;24596;48.080;8.362;2022-09-13T10:13:21;4.15;;;0.75;;
38843;SDS011;24596;48.080;8.362;2022-09-13T10:15:55;4.60;;;0.80;;
38843;SDS011;24596;48.080;8.362;2022-09-13T10:18:22;3.35;;;0.70;;
38843;SDS011;24596;48.080;8.362;2022-09-13T10:23:29;1.45;;;0.70;;
38843;SDS011;24596;48.080;8.362;2022-09-13T10:28:40;1.35;;;0.80;;
38843;SDS011;24596;48.080;8.362;2022-09-13T10:31:08;5.22;;;0.95;;
38843;SDS011;24596;48.080;8.362;2022-09-13T10:33:41;2.65;;;0.90;;
38843;SDS011;24596;48.080;8.362;2022-09-13T10:36:12;2.75;;;0.90;;
38843;SDS011;24596;48.080;8.362;2022-09-13T10:38:39;2.70;;;0.80;;
38843;SDS011;24596;48.080;8.362;2022-09-13T10:41:06;1.77;;;0.85;;
38843;SDS011;24596;48.080;8.362;2022-09-13T10:43:33;4.50;;;1.10;;
38843;SDS011;24596;48.080;8.362;2022-09-13T10:45:59;3.35;;;0.70;;
38843;SDS011;24596;48.080;8.362;2022-09-13T10:48:24;2.45;;;1.15;;
38843;SDS011;24596;48.080;8.362;2022-09-13T10:53:45;3.20;;;0.85;;
38843;SDS011;24596;48.080;8.362;2022-09-13T10:56:25;3.17;;;0.90;;
38843;SDS011;24596;48.080;8.362;2022-09-13T10:58:52;2.85;;;1.00;;
38843;SDS011;24596;48.080;8.362;2022-09-13T11:02:23;2.58;;;0.80;;
38843;SDS011;24596;48.080;8.362;2022-09-13T11:07:02;2.38;;;0.73;;
38843;SDS011;24596;48.080;8.362;2022-09-13T11:09:33;3.65;;;0.88;;
38843;SDS011;24596;48.080;8.362;2022-09-13T11:24:51;1.85;;;0.65;;
38843;SDS011;24596;48.080;8.362;2022-09-13T11:30:03;1.95;;;0.68;;
38843;SDS011;24596;48.080;8.362;2022-09-13T11:32:47;1.15;;;0.50;;
38843;SDS011;24596;48.080;8.362;2022-09-13T11:35:18;2.63;;;0.65;;
38843;SDS011;24596;48.080;8.362;2022-09-13T11:40:43;2.25;;;0.57;;
38843;SDS011;24596;48.080;8.362;2022-09-13T11:43:31;2.80;;;0.90;;
38843;SDS011;24596;48.080;8.362;2022-09-13T11:46:00;1.67;;;0.80;;
38843;SDS011;24596;48.080;8.362;2022-09-13T11:48:41;2.80;;;0.73;;
38843;SDS011;24596;48.080;8.362;2022-09-13T11:51:20;2.65;;;1.00;;
38843;SDS011;24596;48.080;8.362;2022-09-13T11:56:23;3.40;;;0.80;;
38843;SDS011;24596;48.080;8.362;2022-09-13T11:58:54;2.13;;;0.90;;
38843;SDS011;24596;48.080;8.362;2022-09-13T12:01:23;3.17;;;0.70;;
38843;SDS011;24596;48.080;8.362;2022-09-13T12:03:53;2.40;;;0.63;;
38843;SDS011;24596;48.080;8.362;2022-09-13T12:06:22;2.03;;;0.70;;
38843;SDS011;24596;48.080;8.362;2022-09-13T12:08:50;3.53;;;0.70;;
38843;SDS011;24596;48.080;8.362;2022-09-13T12:11:18;2.70;;;0.70;;
38843;SDS011;24596;48.080;8.362;2022-09-13T12:13:52;0.95;;;0.60;;
38843;SDS011;24596;48.080;8.362;2022-09-13T12:16:21;2.80;;;0.77;;
38843;SDS011;24596;48.080;8.362;2022-09-13T12:18:47;1.17;;;0.60;;
38843;SDS011;24596;48.080;8.362;2022-09-13T12:21:14;1.30;;;0.70;;
38843;SDS011;24596;48.080;8.362;2022-09-13T12:23:49;0.95;;;0.40;;
38843;SDS011;24596;48.080;8.362;2022-09-13T12:26:25;1.25;;;0.60;;
38843;SDS011;24596;48.080;8.362;2022-09-13T12:28:56;2.33;;;0.77;;
38843;SDS011;24596;48.080;8.362;2022-09-13T12:31:23;2.30;;;0.73;;
38843;SDS011;24596;48.080;8.362;2022-09-13T12:33:49;7.53;;;0.73;;
38843;SDS011;24596;48.080;8.362;2022-09-13T12:44:20;1.70;;;0.80;;
38843;SDS011;24596;48.080;8.362;2022-09-13T12:49:42;0.80;;;0.52;;
38843;SDS011;24596;48.080;8.362;2022-09-13T12:57:51;2.83;;;0.80;;
38843;SDS011;24596;48.080;8.362;2022-09-13T13:07:55;1.85;;;0.80;;
38843;SDS011;24596;48.080;8.362;2022-09-13T13:10:25;2.08;;;0.70;;
38843;SDS011;24596;48.080;8.362;2022-09-13T13:12:51;3.33;;;0.80;;
38843;SDS011;24596;48.080;8.362;2022-09-13T13:17:51;4.18;;;0.95;;
38843;SDS011;24596;48.080;8.362;2022-09-13T13:23:02;4.78;;;1.10;;
38843;SDS011;24596;48.080;8.362;2022-09-13T13:25:29;2.83;;;0.80;;
38843;SDS011;24596;48.080;8.362;2022-09-13T13:27:55;2.17;;;0.90;;
38843;SDS011;24596;48.080;8.362;2022-09-13T13:30:38;2.05;;;0.75;;
38843;SDS011;24596;48.080;8.362;2022-09-13T13:33:17;2.58;;;0.90;;
38843;SDS011;24596;48.080;8.362;2022-09-13T13:35:43;7.07;;;1.17;;
38843;SDS011;24596;48.080;8.362;2022-09-13T13:38:15;7.35;;;1.27;;
38843;SDS011;24596;48.080;8.362;2022-09-13T13:40:41;2.78;;;0.70;;
38843;SDS011;24596;48.080;8.362;2022-09-13T13:48:34;2.50;;;0.50;;
38843;SDS011;24596;48.080;8.362;2022-09-13T13:51:19;2.78;;;0.40;;
38843;SDS011;24596;48.080;8.362;2022-09-13T13:53:49;2.55;;;0.50;;
38843;SDS011;24596;48.080;8.362;2022-09-13T13:56:23;1.38;;;0.65;;
38843;SDS011;24596;48.080;8.362;2022-09-13T13:58:57;1.52;;;0.63;;
38843;SDS011;24596;48.080;8.362;2022-09-13T14:01:25;2.55;;;0.65;;
38843;SDS011;24596;48.080;8.362;2022-09-13T14:04:28;2.38;;;0.90;;
38843;SDS011;24596;48.080;8.362;2022-09-13T14:12:23;3.75;;;0.80;;
38843;SDS011;24596;48.080;8.362;2022-09-13T14:20:08;2.08;;;0.60;;
38843;SDS011;24596;48.080;8.362;2022-09-13T14:22:35;1.58;;;0.70;;
38843;SDS011;24596;48.080;8.362;2022-09-13T14:27:38;1.88;;;0.85;;
38843;SDS011;24596;48.080;8.362;2022-09-13T14:30:14;2.42;;;0.75;;
38843;SDS011;24596;48.080;8.362;2022-09-13T14:32:41;2.13;;;0.80;;
38843;SDS011;24596;48.080;8.362;2022-09-13T14:35:21;2.10;;;0.98;;
38843;SDS011;24596;48.080;8.362;2022-09-13T14:37:47;1.95;;;0.90;;
38843;SDS011;24596;48.080;8.362;2022-09-13T14:40:20;4.37;;;1.20;;
38843;SDS011;24596;48.080;8.362;2022-09-13T14:42:47;2.10;;;0.75;;
38843;SDS011;24596;48.080;8.362;2022-09-13T14:45:14;3.80;;;0.88;;
38843;SDS011;24596;48.080;8.362;2022-09-13T14:47:56;2.08;;;0.63;;
38843;SDS011;24596;48.080;8.362;2022-09-13T14:50:28;1.50;;;0.52;;
38843;SDS011;24596;48.080;8.362;2022-09-13T14:52:59;2.53;;;0.80;;
38843;SDS011;24596;48.080;8.362;2022-09-13T14:55:27;2.83;;;0.70;;
38843;SDS011;24596;48.080;8.362;2022-09-13T14:57:55;1.25;;;0.60;;
38843;SDS011;24596;48.080;8.362;2022-09-13T15:00:22;2.08;;;0.57;;
38843;SDS011;24596;48.080;8.362;2022-09-13T15:03:00;1.38;;;0.55;;
38843;SDS011;24596;48.080;8.362;2022-09-13T15:05:27;1.70;;;0.70;;
38843;SDS011;24596;48.080;8.362;2022-09-13T15:07:53;2.40;;;0.70;;
38843;SDS011;24596;48.080;8.362;2022-09-13T15:10:26;2.73;;;0.50;;
38843;SDS011;24596;48.080;8.362;2022-09-13T15:17:53;1.53;;;0.50;;
38843;SDS011;24596;48.080;8.362;2022-09-13T15:20:18;1.60;;;0.80;;
38843;SDS011;24596;48.080;8.362;2022-09-13T15:22:44;2.80;;;0.50;;
38843;SDS011;24596;48.080;8.362;2022-09-13T15:25:20;3.47;;;0.67;;
38843;SDS011;24596;48.080;8.362;2022-09-13T15:27:46;1.25;;;0.52;;
38843;SDS011;24596;48.080;8.362;2022-09-13T15:30:18;2.88;;;0.70;;
38843;SDS011;24596;48.080;8.362;2022-09-13T15:32:44;2.10;;;0.80;;
38843;SDS011;24596;48.080;8.362;2022-09-13T15:35:22;2.00;;;0.70;;
38843;SDS011;24596;48.080;8.362;2022-09-13T15:37:59;1.08;;;0.60;;
38843;SDS011;24596;48.080;8.362;2022-09-13T15:40:24;2.97;;;0.70;;
38843;SDS011;24596;48.080;8.362;2022-09-13T15:42:51;3.00;;;0.80;;
38843;SDS011;24596;48.080;8.362;2022-09-13T15:45:17;2.10;;;0.75;;
38843;SDS011;24596;48.080;8.362;2022-09-13T15:47:46;2.45;;;0.95;;
38843;SDS011;24596;48.080;8.362;2022-09-13T15:50:27;1.23;;;0.70;;
38843;SDS011;24596;48.080;8.362;2022-09-13T15:52:55;2.20;;;0.65;;
38843;SDS011;24596;48.080;8.362;2022-09-13T15:55:20;2.53;;;0.55;;
38843;SDS011;24596;48.080;8.362;2022-09-13T15:57:46;2.42;;;0.80;;
38843;SDS011;24596;48.080;8.362;2022-09-13T16:00:18;1.48;;;0.70;;
38843;SDS011;24596;48.080;8.362;2022-09-13T16:02:44;2.03;;;1.10;;
38843;SDS011;24596;48.080;8.362;2022-09-13T16:05:09;2.50;;;0.70;;
38843;SDS011;24596;48.080;8.362;2022-09-13T16:07:36;3.85;;;1.00;;
38843;SDS011;24596;48.080;8.362;2022-09-13T16:10:02;2.75;;;1.15;;
38843;SDS011;24596;48.080;8.362;2022-09-13T16:12:27;6.47;;;1.10;;
38843;SDS011;24596;48.080;8.362;2022-09-13T16:14:52;2.55;;;0.90;;
38843;SDS011;24596;48.080;8.362;2022-09-13T16:17:22;3.75;;;0.85;;
38843;SDS011;24596;48.080;8.362;2022-09-13T16:19:48;2.83;;;0.70;;
38843;SDS011;24596;48.080;8.362;2022-09-13T16:22:13;4.72;;;1.77;;
38843;SDS011;24596;48.080;8.362;2022-09-13T16:24:38;9.52;;;1.38;;
38843;SDS011;24596;48.080;8.362;2022-09-13T16:27:04;2.65;;;0.90;;
38843;SDS011;24596;48.080;8.362;2022-09-13T16:29:29;4.05;;;1.10;;
38843;SDS011;24596;48.080;8.362;2022-09-13T16:31:54;6.57;;;1.05;;
38843;SDS011;24596;48.080;8.362;2022-09-13T16:34:21;5.63;;;1.35;;
38843;SDS011;24596;48.080;8.362;2022-09-13T16:36:46;3.13;;;1.27;;
38843;SDS011;24596;48.080;8.362;2022-09-13T16:39:11;2.73;;;0.70;;
38843;SDS011;24596;48.080;8.362;2022-09-13T16:41:38;2.93;;;1.10;;
38843;SDS011;24596;48.080;8.362;2022-09-13T16:44:03;5.10;;;1.30;;
38843;SDS011;24596;48.080;8.362;2022-09-13T16:46:29;4.00;;;1.10;;
38843;SDS011;24596;48.080;8.362;2022-09-13T16:48:55;2.78;;;0.82;;
38843;SDS011;24596;48.080;8.362;2022-09-13T16:51:21;4.22;;;1.30;;
38843;SDS011;24596;48.080;8.362;2022-09-13T16:53:47;7.45;;;1.70;;
38843;SDS011;24596;48.080;8.362;2022-09-13T16:56:15;4.30;;;2.00;;
38843;SDS011;24596;48.080;8.362;2022-09-13T16:58:41;8.70;;;2.05;;
38843;SDS011;24596;48.080;8.362;2022-09-13T17:01:07;6.30;;;1.73;;
38843;SDS011;24596;48.080;8.362;2022-09-13T17:03:33;7.32;;;1.38;;
38843;SDS011;24596;48.080;8.362;2022-09-13T17:06:00;7.68;;;1.52;;
38843;SDS011;24596;48.080;8.362;2022-09-13T17:08:26;5.15;;;1.48;;
38843;SDS011;24596;48.080;8.362;2022-09-13T17:10:52;5.65;;;1.30;;
38843;SDS011;24596;48.080;8.362;2022-09-13T17:13:17;4.47;;;1.50;;
38843;SDS011;24596;48.080;8.362;2022-09-13T17:15:42;6.40;;;1.20;;